РПИ Душанбе

Руководство

Evgeny Vygornitsky*

Куратор
Инструкторы РПИ
Evgeny Vygornitsky (Supervisor)
Sergey Balandin (Senior Instructor)
Vitaliy Alekseyev (Instructor)
Входит в состав
Центральная Азия

Диспетчеры РПИ

Диспетчер Рейтинг Допуски *

Аэропорты РПИ

ICAO Город Название Погода
UTDD Душанбе Душанбе UTDD 100730Z VRB01MPS 1500 BR FU FEW007 SCT012 03/00 Q1028 R09/D NOSIG RMK QFE702/0936
UTDL Худжанд Худжанд UTDL 100730Z 07007MPS 7000 NSC 01/M03 Q1033 R08/890432 NOSIG RMK QFE735/0980